Terminal Aerodrome Forecast
Issued by NWS

Home | Current Version | Previous Version | Text Only | Print | Product List | Glossary On
Versions: 1 2 3 4 5 6 7 8 9 10 11 12
000
FTUS42 KMHX 280526
TAFISO
TAF
KISO 280526Z 2806/2906 00000KT P6SM FEW250
     FM280900 VRB03KT 4SM BR SCT007
     FM281300 VRB03KT P6SM SCT200
     FM281800 08010KT P6SM BKN080
     FM290000 10005KT P6SM SHRA OVC050
      AMD LTD TO CLD VIS AND WIND=

USA.gov is the U.S. government's official web portal to all federal, state and local government web resources and services.